HIBUK LLRD-LLRD
Flight info
| Callsign | HIBUK |
|---|---|
| Flight time | N/A |
| Altitude | 250 |
| Route | HASID GALIM AAKKO |
| Aircraft | AS65/L-SDGRWY/XPDR |
Departure
| Time | 2026-05-05 08:50 |
|---|---|
| Airport | Ramat David Air Base (LLRD) |
Arrival
| Time | N/A |
|---|---|
| Airport | Ramat David Air Base (LLRD) |
| Time | Latitude | Longitude | Altitude | Speed | Heading |
|---|---|---|---|---|---|
| 2026-05-05 08:48 | 32.66989 | 35.18242 | 141 ft | 0 kts | 269° |
| 2026-05-05 08:49 | 32.67042 | 35.17987 | 164 ft | 74 kts | 283° |
| 2026-05-05 08:50 | 32.67291 | 35.17336 | 308 ft | 92 kts | 289° |
| 2026-05-05 08:50 | 32.67570 | 35.16631 | 500 ft | 99 kts | 289° |
| 2026-05-05 08:50 | 32.67917 | 35.15904 | 609 ft | 99 kts | 298° |
| 2026-05-05 08:50 | 32.68267 | 35.15306 | 992 ft | 80 kts | 298° |
| 2026-05-05 08:51 | 32.68630 | 35.14761 | 1179 ft | 95 kts | 296° |
| 2026-05-05 08:51 | 32.69065 | 35.14096 | 1300 ft | 105 kts | 301° |
| 2026-05-05 08:51 | 32.69544 | 35.13420 | 1529 ft | 108 kts | 303° |
| 2026-05-05 08:51 | 32.70049 | 35.12762 | 1710 ft | 110 kts | 306° |
| 2026-05-05 08:52 | 32.70588 | 35.12106 | 1910 ft | 115 kts | 308° |
| 2026-05-05 08:52 | 32.71178 | 35.11440 | 2119 ft | 119 kts | 312° |
| 2026-05-05 08:52 | 32.71805 | 35.10790 | 2298 ft | 120 kts | 314° |
| 2026-05-05 08:52 | 32.72461 | 35.10165 | 2457 ft | 122 kts | 315° |
| 2026-05-05 08:53 | 32.73146 | 35.09558 | 2516 ft | 128 kts | 317° |
| 2026-05-05 08:53 | 32.73885 | 35.08869 | 2401 ft | 140 kts | 314° |
| 2026-05-05 08:53 | 32.74625 | 35.08086 | 2298 ft | 146 kts | 313° |
| 2026-05-05 08:53 | 32.75382 | 35.07261 | 2144 ft | 152 kts | 313° |
| 2026-05-05 08:54 | 32.76170 | 35.06409 | 1975 ft | 155 kts | 314° |
| 2026-05-05 08:54 | 32.76983 | 35.05534 | 1729 ft | 160 kts | 314° |
| 2026-05-05 08:54 | 32.77827 | 35.04651 | 1506 ft | 162 kts | 315° |
| 2026-05-05 08:54 | 32.78709 | 35.03812 | 1283 ft | 163 kts | 317° |
| 2026-05-05 08:55 | 32.79624 | 35.03043 | 1164 ft | 159 kts | 323° |
| 2026-05-05 08:55 | 32.80449 | 35.02424 | 1052 ft | 158 kts | 323° |
| 2026-05-05 08:55 | 32.81381 | 35.01726 | 918 ft | 158 kts | 322° |
| 2026-05-05 08:55 | 32.82308 | 35.01009 | 778 ft | 159 kts | 321° |
| 2026-05-05 08:56 | 32.83204 | 35.00271 | 644 ft | 159 kts | 321° |
| 2026-05-05 08:56 | 32.83924 | 34.99359 | 604 ft | 148 kts | 292° |
| 2026-05-05 08:56 | 32.84053 | 34.98205 | 639 ft | 139 kts | 261° |
| 2026-05-05 08:56 | 32.83850 | 34.97077 | 605 ft | 142 kts | 259° |
| 2026-05-05 08:57 | 32.83641 | 34.95946 | 648 ft | 137 kts | 256° |
| 2026-05-05 08:57 | 32.83124 | 34.95049 | 696 ft | 134 kts | 222° |
| 2026-05-05 08:57 | 32.82232 | 34.94772 | 814 ft | 134 kts | 192° |
| 2026-05-05 08:57 | 32.81388 | 34.94747 | 870 ft | 133 kts | 190° |
| 2026-05-05 08:58 | 32.80443 | 34.94698 | 834 ft | 139 kts | 191° |
| 2026-05-05 08:58 | 32.79448 | 34.94631 | 682 ft | 149 kts | 191° |
| 2026-05-05 08:58 | 32.78391 | 34.94531 | 536 ft | 154 kts | 193° |
| 2026-05-05 08:58 | 32.77343 | 34.94370 | 489 ft | 150 kts | 195° |
| 2026-05-05 08:59 | 32.76312 | 34.94252 | 464 ft | 147 kts | 191° |
| 2026-05-05 08:59 | 32.75287 | 34.94229 | 470 ft | 147 kts | 186° |
| 2026-05-05 08:59 | 32.74266 | 34.94249 | 480 ft | 148 kts | 185° |
| 2026-05-05 08:59 | 32.73217 | 34.94272 | 352 ft | 153 kts | 192° |
| 2026-05-05 09:00 | 32.72194 | 34.94049 | 318 ft | 145 kts | 201° |
| 2026-05-05 09:00 | 32.71331 | 34.93871 | 498 ft | 135 kts | 194° |
| 2026-05-05 09:00 | 32.70421 | 34.93716 | 596 ft | 135 kts | 200° |
| 2026-05-05 09:00 | 32.69516 | 34.93323 | 579 ft | 142 kts | 210° |
| 2026-05-05 09:01 | 32.68607 | 34.92828 | 548 ft | 146 kts | 208° |
| 2026-05-05 09:01 | 32.67638 | 34.92456 | 442 ft | 146 kts | 201° |
| 2026-05-05 09:01 | 32.66649 | 34.92211 | 368 ft | 146 kts | 196° |
| 2026-05-05 09:01 | 32.65641 | 34.92042 | 322 ft | 146 kts | 194° |
| 2026-05-05 09:02 | 32.64624 | 34.91917 | 296 ft | 147 kts | 191° |
| 2026-05-05 09:02 | 32.63605 | 34.91834 | 298 ft | 146 kts | 190° |
| 2026-05-05 09:02 | 32.62593 | 34.91753 | 294 ft | 145 kts | 191° |
| 2026-05-05 09:02 | 32.61579 | 34.91662 | 309 ft | 147 kts | 192° |
| 2026-05-05 09:03 | 32.60579 | 34.91519 | 333 ft | 145 kts | 200° |
| 2026-05-05 09:03 | 32.59632 | 34.91111 | 326 ft | 143 kts | 211° |
| 2026-05-05 09:03 | 32.58746 | 34.90634 | 333 ft | 140 kts | 212° |
| 2026-05-05 09:03 | 32.57862 | 34.90166 | 332 ft | 140 kts | 207° |
| 2026-05-05 09:04 | 32.56915 | 34.89854 | 321 ft | 143 kts | 199° |
| 2026-05-05 09:04 | 32.55914 | 34.89715 | 281 ft | 147 kts | 191° |
| 2026-05-05 09:04 | 32.54887 | 34.89686 | 279 ft | 147 kts | 189° |
| 2026-05-05 09:04 | 32.53866 | 34.89645 | 259 ft | 147 kts | 190° |
| 2026-05-05 09:05 | 32.52847 | 34.89592 | 276 ft | 146 kts | 191° |
| 2026-05-05 09:05 | 32.51860 | 34.89430 | 325 ft | 141 kts | 197° |
| 2026-05-05 09:05 | 32.50902 | 34.89206 | 363 ft | 140 kts | 200° |
| 2026-05-05 09:05 | 32.49966 | 34.88938 | 422 ft | 138 kts | 201° |
| 2026-05-05 09:06 | 32.49049 | 34.88628 | 386 ft | 137 kts | 204° |
| 2026-05-05 09:06 | 32.48149 | 34.88278 | 349 ft | 136 kts | 207° |
| 2026-05-05 09:06 | 32.47283 | 34.87897 | 323 ft | 133 kts | 209° |
| 2026-05-05 09:06 | 32.46456 | 34.87491 | 509 ft | 125 kts | 211° |
| 2026-05-05 09:07 | 32.45636 | 34.87044 | 433 ft | 136 kts | 211° |
| 2026-05-05 09:07 | 32.44765 | 34.86600 | 485 ft | 137 kts | 209° |
| 2026-05-05 09:07 | 32.43862 | 34.86211 | 501 ft | 141 kts | 205° |
| 2026-05-05 09:07 | 32.42891 | 34.85964 | 507 ft | 144 kts | 198° |
| 2026-05-05 09:08 | 32.41888 | 34.85840 | 538 ft | 145 kts | 192° |
| 2026-05-05 09:08 | 32.40881 | 34.85820 | 528 ft | 145 kts | 190° |
| 2026-05-05 09:08 | 32.39870 | 34.85708 | 437 ft | 146 kts | 196° |
| 2026-05-05 09:08 | 32.38852 | 34.85537 | 410 ft | 149 kts | 197° |
| 2026-05-05 09:09 | 32.37823 | 34.85353 | 384 ft | 154 kts | 197° |
| 2026-05-05 09:09 | 32.36751 | 34.85149 | 364 ft | 157 kts | 199° |
| 2026-05-05 09:09 | 32.35670 | 34.84932 | 266 ft | 157 kts | 199° |
| 2026-05-05 09:09 | 32.34625 | 34.84719 | 303 ft | 148 kts | 198° |
| 2026-05-05 09:10 | 32.33624 | 34.84516 | 345 ft | 144 kts | 200° |
| 2026-05-05 09:10 | 32.32646 | 34.84321 | 430 ft | 143 kts | 198° |
| 2026-05-05 09:10 | 32.31676 | 34.84137 | 588 ft | 140 kts | 199° |
| 2026-05-05 09:10 | 32.30710 | 34.83971 | 778 ft | 140 kts | 197° |
| 2026-05-05 09:11 | 32.29755 | 34.83833 | 984 ft | 140 kts | 194° |
| 2026-05-05 09:11 | 32.28778 | 34.83666 | 1051 ft | 148 kts | 200° |
| 2026-05-05 09:11 | 32.27713 | 34.83414 | 981 ft | 162 kts | 198° |
| 2026-05-05 09:11 | 32.26586 | 34.83130 | 866 ft | 169 kts | 199° |
| 2026-05-05 09:12 | 32.25427 | 34.82808 | 771 ft | 174 kts | 200° |
| 2026-05-05 09:12 | 32.24231 | 34.82668 | 711 ft | 169 kts | 189° |
| 2026-05-05 09:12 | 32.23079 | 34.82746 | 715 ft | 164 kts | 181° |
| 2026-05-05 09:12 | 32.21944 | 34.82974 | 743 ft | 164 kts | 176° |
| 2026-05-05 09:13 | 32.21212 | 34.83190 | 766 ft | 164 kts | 173° |
| 2026-05-05 09:13 | 32.19935 | 34.83648 | 759 ft | 155 kts | 178° |
| 2026-05-05 09:13 | 32.18984 | 34.83659 | 524 ft | 119 kts | 199° |
| 2026-05-05 09:13 | 32.18318 | 34.83479 | 316 ft | 77 kts | 220° |
| 2026-05-05 09:14 | 32.18143 | 34.83091 | 157 ft | 40 kts | 277° |
| 2026-05-05 09:14 | 32.18144 | 34.82967 | 121 ft | 11 kts | 231° |
| 2026-05-05 09:14 | 32.18117 | 34.82946 | 110 ft | 1 kts | 17° |
| 2026-05-05 09:14 | 32.18115 | 34.82941 | 99 ft | 0 kts | 18° |
| 2026-05-05 09:15 | 32.18115 | 34.82942 | 99 ft | 1 kts | 23° |